createdAt,value
2022-07-29T00:01:40.426Z,100341.59
2022-07-29T00:04:06.669Z,100338.41
2022-07-29T00:06:32.882Z,100333.34
2022-07-29T00:08:59.067Z,100328.03
2022-07-29T00:11:25.227Z,100323.31
2022-07-29T00:13:51.409Z,100322.78
2022-07-29T00:16:17.689Z,100315.25
2022-07-29T00:18:43.944Z,100316.91
2022-07-29T00:21:10.097Z,100315.91
2022-07-29T00:23:36.947Z,100311.44
2022-07-29T00:26:03.231Z,100321.75
2022-07-29T00:28:29.423Z,100320.19
2022-07-29T00:30:55.592Z,100312.47
2022-07-29T00:33:21.781Z,100315.94
2022-07-29T00:35:48.018Z,100322.63
2022-07-29T00:38:14.199Z,100317.94
2022-07-29T00:40:40.384Z,100322.31
2022-07-29T00:43:10.169Z,100315.50
2022-07-29T00:45:36.333Z,100321.28
2022-07-29T00:48:02.516Z,100318.22
2022-07-29T00:50:28.738Z,100325.38
2022-07-29T00:52:54.898Z,100316.28
2022-07-29T00:55:21.074Z,100322.03
2022-07-29T00:57:47.277Z,100322.19
2022-07-29T01:00:13.457Z,100321.50
2022-07-29T01:02:39.688Z,100325.41
2022-07-29T01:05:05.968Z,100313.56
2022-07-29T01:07:32.124Z,100315.38
2022-07-29T01:09:58.388Z,100309.66
2022-07-29T01:12:24.565Z,100305.47
2022-07-29T01:14:50.732Z,100304.66
2022-07-29T01:17:17.000Z,100297.75
2022-07-29T01:19:43.155Z,100294.44
2022-07-29T01:22:09.354Z,100295.00
2022-07-29T01:24:35.526Z,100286.00
2022-07-29T01:27:01.720Z,100282.78
2022-07-29T01:29:35.877Z,100277.31
2022-07-29T01:32:05.285Z,100273.94
2022-07-29T01:34:31.475Z,100279.66
2022-07-29T01:36:57.745Z,100284.25
2022-07-29T01:39:23.935Z,100280.66
2022-07-29T01:41:50.104Z,100284.25
2022-07-29T01:44:16.560Z,100285.81
2022-07-29T01:46:42.984Z,100277.59
2022-07-29T01:49:09.206Z,100278.00
2022-07-29T01:51:35.416Z,100280.13
2022-07-29T01:54:01.598Z,100283.72
2022-07-29T01:56:27.758Z,100275.22
2022-07-29T01:58:53.949Z,100283.19
2022-07-29T02:01:20.132Z,100291.59
2022-07-29T02:03:46.409Z,100289.78
2022-07-29T02:06:12.572Z,100292.75
2022-07-29T02:08:38.783Z,100285.59
2022-07-29T02:11:04.974Z,100286.59
2022-07-29T02:13:31.135Z,100279.47
2022-07-29T02:15:57.453Z,100280.50
2022-07-29T02:18:23.660Z,100274.53
2022-07-29T02:20:49.899Z,100281.78
2022-07-29T02:23:16.112Z,100281.53
2022-07-29T02:25:42.348Z,100278.31
2022-07-29T02:28:09.059Z,100284.19
2022-07-29T02:30:35.252Z,100280.13
2022-07-29T02:33:01.397Z,100279.44
2022-07-29T02:35:27.588Z,100284.06
2022-07-29T02:37:53.894Z,100286.13
2022-07-29T02:40:20.053Z,100295.31
2022-07-29T02:42:46.258Z,100292.25
2022-07-29T02:45:12.434Z,100293.09
2022-07-29T02:47:41.448Z,100297.13
2022-07-29T02:50:08.172Z,100293.63
2022-07-29T02:52:34.402Z,100301.38
2022-07-29T02:55:00.598Z,100296.25
2022-07-29T02:57:26.758Z,100296.13
2022-07-29T02:59:52.921Z,100299.19
2022-07-29T03:02:19.202Z,100297.16
2022-07-29T03:04:45.469Z,100293.38
2022-07-29T03:07:11.733Z,100297.84
2022-07-29T03:09:40.661Z,100306.72
2022-07-29T03:12:06.863Z,100290.53
2022-07-29T03:14:33.058Z,100297.09
2022-07-29T03:16:59.243Z,100301.69
2022-07-29T03:19:25.407Z,100298.31
2022-07-29T03:21:51.592Z,100292.84
2022-07-29T03:24:18.087Z,100299.00
2022-07-29T03:26:44.547Z,100299.28
2022-07-29T03:29:10.721Z,100293.91
2022-07-29T03:31:39.765Z,100293.41
2022-07-29T03:34:09.839Z,100286.66
2022-07-29T03:36:36.015Z,100288.72
2022-07-29T03:39:02.194Z,100289.63
2022-07-29T03:41:28.412Z,100288.81
2022-07-29T03:43:54.624Z,100287.09
2022-07-29T03:46:20.880Z,100295.81
2022-07-29T03:48:47.103Z,100290.63
2022-07-29T03:51:13.318Z,100303.28
2022-07-29T03:53:39.505Z,100298.81
2022-07-29T03:56:05.700Z,100280.84
2022-07-29T03:58:31.872Z,100303.97
2022-07-29T04:00:58.330Z,100306.47
2022-07-29T04:03:24.612Z,100302.69
2022-07-29T04:05:50.811Z,100306.63
2022-07-29T04:08:17.008Z,100300.31
2022-07-29T04:10:43.166Z,100304.75
2022-07-29T04:13:09.381Z,100309.72
2022-07-29T04:15:35.578Z,100318.38
2022-07-29T04:18:01.806Z,100311.66
2022-07-29T04:20:27.990Z,100316.56
2022-07-29T04:22:54.158Z,100318.38
2022-07-29T04:25:20.343Z,100324.03
2022-07-29T04:27:46.510Z,100319.59
2022-07-29T04:30:12.736Z,100321.78
2022-07-29T04:32:38.927Z,100322.50
2022-07-29T04:35:05.087Z,100324.69
2022-07-29T04:37:31.251Z,100315.06
2022-07-29T04:39:57.458Z,100323.03
2022-07-29T04:42:27.625Z,100329.47
2022-07-29T04:44:55.451Z,100332.63
2022-07-29T04:47:21.624Z,100331.56
2022-07-29T04:49:47.829Z,100328.19
2022-07-29T04:52:14.046Z,100328.44
2022-07-29T04:54:40.200Z,100338.50
2022-07-29T04:57:06.361Z,100330.69
2022-07-29T04:59:32.560Z,100338.38
2022-07-29T05:01:58.760Z,100324.09
2022-07-29T05:04:25.040Z,100325.97
2022-07-29T05:06:51.398Z,100324.16
2022-07-29T05:09:17.598Z,100327.13
2022-07-29T05:11:43.792Z,100329.25
2022-07-29T05:14:09.946Z,100336.91
2022-07-29T05:16:36.115Z,100336.16
2022-07-29T05:19:02.327Z,100334.56
2022-07-29T05:21:28.525Z,100339.91
2022-07-29T05:23:54.689Z,100338.34
2022-07-29T05:26:20.910Z,100338.97
2022-07-29T05:28:47.162Z,100333.31
2022-07-29T05:31:13.358Z,100339.00
2022-07-29T05:33:39.632Z,100340.06
2022-07-29T05:36:05.794Z,100334.50
2022-07-29T05:38:31.957Z,100333.06
2022-07-29T05:40:58.145Z,100333.53
2022-07-29T05:43:24.335Z,100337.75
2022-07-29T05:45:50.598Z,100340.13
2022-07-29T05:48:16.857Z,100334.16
2022-07-29T05:50:44.185Z,100340.28
2022-07-29T05:53:19.192Z,100349.84
2022-07-29T05:55:46.820Z,100354.66
2022-07-29T05:58:13.422Z,100353.53
2022-07-29T06:00:39.601Z,100350.34
2022-07-29T06:03:05.768Z,100356.38
2022-07-29T06:05:31.929Z,100360.63
2022-07-29T06:07:58.128Z,100369.06
2022-07-29T06:10:26.989Z,100364.84
2022-07-29T06:12:53.357Z,100369.06
2022-07-29T06:15:19.562Z,100356.75
2022-07-29T06:18:00.524Z,100356.97
2022-07-29T06:20:27.639Z,100356.34
2022-07-29T06:22:53.790Z,100363.16
2022-07-29T06:25:19.942Z,100358.44
2022-07-29T06:27:46.126Z,100361.38
2022-07-29T06:30:12.302Z,100364.66
2022-07-29T06:32:42.929Z,100364.78
2022-07-29T06:35:39.436Z,100365.81
2022-07-29T06:37:55.650Z,100369.41
2022-07-29T06:40:25.887Z,100370.41
2022-07-29T06:42:52.120Z,100376.06
2022-07-29T06:45:18.319Z,100370.97
2022-07-29T06:47:47.247Z,100369.69
2022-07-29T06:50:13.452Z,100373.56
2022-07-29T06:52:39.649Z,100373.84
2022-07-29T06:55:05.858Z,100374.94
2022-07-29T06:57:44.233Z,100378.94
2022-07-29T07:00:10.430Z,100376.38
2022-07-29T07:02:37.146Z,100375.75
2022-07-29T07:05:03.373Z,100386.97
2022-07-29T07:07:29.555Z,100379.31
2022-07-29T07:09:55.748Z,100389.91
2022-07-29T07:12:21.916Z,100390.63
2022-07-29T07:14:48.114Z,100390.47
2022-07-29T07:17:14.312Z,100380.53
2022-07-29T07:19:40.511Z,100395.66
2022-07-29T07:22:09.030Z,100389.50
2022-07-29T07:24:35.338Z,100393.44
2022-07-29T07:27:01.601Z,100398.44
2022-07-29T07:29:27.820Z,100396.31
2022-07-29T07:31:58.832Z,100395.13
2022-07-29T07:34:29.459Z,100394.56
2022-07-29T07:36:56.091Z,100401.31
2022-07-29T07:39:22.322Z,100398.28
2022-07-29T07:41:48.491Z,100394.47
2022-07-29T07:44:16.195Z,100392.16
2022-07-29T07:46:42.550Z,100385.59
2022-07-29T07:49:09.172Z,100392.66
2022-07-29T07:51:37.429Z,100392.13
2022-07-29T07:54:03.643Z,100394.41
2022-07-29T07:56:35.050Z,100392.09
2022-07-29T07:59:01.539Z,100390.78
2022-07-29T08:01:27.818Z,100391.66
2022-07-29T08:03:54.063Z,100387.75
2022-07-29T08:06:20.247Z,100390.34
2022-07-29T08:08:51.886Z,100387.72
2022-07-29T08:11:21.334Z,100391.72
2022-07-29T08:13:58.055Z,100391.56
2022-07-29T08:16:26.727Z,100386.59
2022-07-29T08:19:15.549Z,100387.03
2022-07-29T08:24:25.916Z,100393.53
2022-07-29T08:26:52.195Z,100388.63
2022-07-29T08:29:20.534Z,100394.78
2022-07-29T08:31:50.046Z,100402.13
2022-07-29T08:34:16.451Z,100399.56
2022-07-29T08:36:42.678Z,100403.41
2022-07-29T08:39:08.934Z,100410.69
2022-07-29T08:41:35.159Z,100406.34
2022-07-29T08:44:01.385Z,100403.16
2022-07-29T08:46:27.610Z,100403.38
2022-07-29T08:48:53.824Z,100404.38
2022-07-29T08:51:20.195Z,100405.66
2022-07-29T08:53:46.513Z,100408.09
2022-07-29T08:56:17.592Z,100407.16
2022-07-29T08:58:54.257Z,100406.94
2022-07-29T09:01:20.585Z,100413.53
2022-07-29T09:03:54.277Z,100394.69
2022-07-29T09:09:05.375Z,100405.63
2022-07-29T09:11:31.638Z,100406.75
2022-07-29T09:13:57.885Z,100400.78
2022-07-29T09:16:50.830Z,100401.13
2022-07-29T09:19:18.002Z,100403.59
2022-07-29T09:21:53.060Z,100403.03
2022-07-29T09:24:20.732Z,100406.44
2022-07-29T09:26:49.834Z,100410.75
2022-07-29T09:29:16.056Z,100412.06
2022-07-29T09:31:42.364Z,100414.94
2022-07-29T09:34:08.645Z,100401.75
2022-07-29T09:36:37.647Z,100411.03
2022-07-29T09:39:03.884Z,100405.75
2022-07-29T09:44:13.036Z,100407.50
2022-07-29T09:46:40.326Z,100408.34
2022-07-29T09:49:06.671Z,100407.13
2022-07-29T09:51:38.473Z,100398.97
2022-07-29T09:54:04.908Z,100395.34
2022-07-29T09:56:39.127Z,100390.47
2022-07-29T09:59:08.505Z,100403.44
2022-07-29T10:01:34.746Z,100399.22
2022-07-29T10:04:01.202Z,100401.56
2022-07-29T10:06:41.540Z,100403.03
2022-07-29T10:09:07.837Z,100393.13
2022-07-29T10:11:48.364Z,100401.56
2022-07-29T10:14:15.640Z,100408.66
2022-07-29T10:16:44.205Z,100394.78
2022-07-29T10:19:10.507Z,100394.38
2022-07-29T10:21:36.866Z,100384.25
2022-07-29T10:24:05.900Z,100385.75
2022-07-29T10:26:39.598Z,100380.69
2022-07-29T10:29:05.912Z,100387.06
2022-07-29T10:31:33.773Z,100379.94
2022-07-29T10:34:01.465Z,100379.47
2022-07-29T10:36:27.709Z,100383.31
2022-07-29T10:39:04.466Z,100380.88
2022-07-29T10:41:43.932Z,100376.75
2022-07-29T10:44:16.104Z,100375.91
2022-07-29T10:46:46.618Z,100369.88
2022-07-29T10:49:15.208Z,100366.41
2022-07-29T10:54:22.006Z,100368.75
2022-07-29T10:56:48.275Z,100363.97
2022-07-29T10:59:16.916Z,100354.38
2022-07-29T11:01:46.411Z,100358.09
2022-07-29T11:04:18.630Z,100365.03
2022-07-29T11:06:49.110Z,100362.22
2022-07-29T11:09:15.324Z,100359.75
2022-07-29T11:11:43.953Z,100357.50
2022-07-29T11:14:14.088Z,100358.56
2022-07-29T11:16:40.330Z,100350.88
2022-07-29T11:19:07.575Z,100357.03
2022-07-29T11:21:51.666Z,100354.13
2022-07-29T11:24:28.942Z,100353.53
2022-07-29T11:27:00.522Z,100352.16
2022-07-29T11:29:26.993Z,100352.38
2022-07-29T11:31:53.801Z,100341.09
2022-07-29T11:34:21.288Z,100342.38
2022-07-29T11:36:48.817Z,100344.56
2022-07-29T11:39:15.203Z,100343.50
2022-07-29T11:41:41.418Z,100338.53
2022-07-29T11:44:09.164Z,100343.41
2022-07-29T11:46:35.348Z,100350.34
2022-07-29T11:49:02.303Z,100348.16
2022-07-29T11:51:35.516Z,100340.28
2022-07-29T11:54:05.456Z,100342.97
2022-07-29T11:56:39.151Z,100338.72
2022-07-29T11:59:08.477Z,100335.59
2022-07-29T12:01:34.816Z,100340.06
2022-07-29T12:04:01.082Z,100342.47
2022-07-29T12:06:27.350Z,100340.84
2022-07-29T12:08:53.579Z,100346.25
2022-07-29T12:11:21.323Z,100330.78
2022-07-29T12:13:49.237Z,100320.19
2022-07-29T12:16:15.973Z,100322.50
2022-07-29T12:18:44.973Z,100323.31
2022-07-29T12:21:12.553Z,100320.59
2022-07-29T12:23:39.000Z,100323.13
2022-07-29T12:26:05.216Z,100322.66
2022-07-29T12:28:33.972Z,100324.19
2022-07-29T12:31:01.263Z,100321.81
2022-07-29T12:33:28.248Z,100331.13
2022-07-29T12:36:14.167Z,100328.84
2022-07-29T12:38:43.849Z,100323.03
2022-07-29T12:41:10.017Z,100327.13
2022-07-29T12:43:36.215Z,100327.72
2022-07-29T12:46:02.451Z,100319.91
2022-07-29T12:48:28.636Z,100316.84
2022-07-29T12:50:54.892Z,100314.13
2022-07-29T12:53:21.105Z,100303.06
2022-07-29T12:55:47.522Z,100309.28
2022-07-29T12:58:13.805Z,100315.00
2022-07-29T13:00:41.057Z,100317.31
2022-07-29T13:03:08.086Z,100319.16
2022-07-29T13:05:34.281Z,100318.69
2022-07-29T13:08:00.493Z,100315.34
2022-07-29T13:10:26.799Z,100307.00
2022-07-29T13:12:53.062Z,100316.34
2022-07-29T13:15:19.236Z,100318.53
2022-07-29T13:17:45.435Z,100316.72
2022-07-29T13:20:14.248Z,100309.50
2022-07-29T13:22:40.451Z,100325.41
2022-07-29T13:25:06.621Z,100318.50
2022-07-29T13:27:32.827Z,100316.00
2022-07-29T13:29:59.018Z,100315.16
2022-07-29T13:32:27.844Z,100316.06
2022-07-29T13:34:54.748Z,100323.41
2022-07-29T13:37:20.906Z,100323.75
2022-07-29T13:39:51.315Z,100322.09
2022-07-29T13:42:19.486Z,100325.28
2022-07-29T13:44:45.668Z,100322.22
2022-07-29T13:47:11.855Z,100316.97
2022-07-29T13:49:40.104Z,100320.06
2022-07-29T13:52:06.323Z,100319.28
2022-07-29T13:54:38.817Z,100310.25
2022-07-29T13:57:08.022Z,100306.75
2022-07-29T13:59:34.497Z,100303.34
2022-07-29T14:02:04.874Z,100304.06
2022-07-29T14:10:05.707Z,100300.09
2022-07-29T14:18:15.577Z,100288.72
2022-07-29T14:23:30.621Z,100299.25
2022-07-29T14:28:47.331Z,100297.25
2022-07-29T14:31:19.828Z,100302.81
2022-07-29T14:33:49.151Z,100297.50
2022-07-29T14:37:15.784Z,100298.41
2022-07-29T14:42:02.436Z,100290.69
2022-07-29T14:44:28.670Z,100288.41
2022-07-29T14:46:54.924Z,100293.81
2022-07-29T14:49:23.396Z,100289.38
2022-07-29T14:51:49.608Z,100291.38
2022-07-29T14:54:16.949Z,100283.28
2022-07-29T14:56:46.651Z,100290.84
2022-07-29T14:59:23.470Z,100295.44
2022-07-29T15:01:57.200Z,100294.22
2022-07-29T15:04:23.626Z,100287.44
2022-07-29T15:12:14.555Z,100293.69
2022-07-29T15:14:42.217Z,100296.34
2022-07-29T15:17:13.561Z,100294.28
2022-07-29T15:19:45.031Z,100294.72
2022-07-29T15:22:11.342Z,100291.69
2022-07-29T15:24:37.578Z,100291.41
2022-07-29T15:27:03.821Z,100288.31
2022-07-29T15:29:30.026Z,100288.22
2022-07-29T15:31:56.703Z,100294.72
2022-07-29T15:34:27.381Z,100300.44
2022-07-29T15:36:54.126Z,100293.34
2022-07-29T15:39:20.511Z,100290.22
2022-07-29T15:41:46.723Z,100283.47
2022-07-29T15:44:19.675Z,100278.47
2022-07-29T15:46:48.659Z,100275.16
2022-07-29T15:49:16.073Z,100281.59
2022-07-29T15:51:44.557Z,100277.66
2022-07-29T15:54:10.852Z,100292.13
2022-07-29T15:56:38.503Z,100280.03
2022-07-29T15:59:04.768Z,100281.59
2022-07-29T16:01:31.176Z,100284.13
2022-07-29T16:03:58.903Z,100283.88
2022-07-29T16:06:25.167Z,100282.78
2022-07-29T16:08:51.393Z,100277.31
2022-07-29T16:11:17.649Z,100282.00
2022-07-29T16:13:44.062Z,100270.31
2022-07-29T16:16:12.637Z,100267.19
2022-07-29T16:21:19.118Z,100265.44
2022-07-29T16:23:54.140Z,100264.44
2022-07-29T16:26:26.655Z,100265.13
2022-07-29T16:28:54.402Z,100263.53
2022-07-29T16:31:21.049Z,100261.69
2022-07-29T16:34:09.875Z,100262.72
2022-07-29T16:36:36.525Z,100258.53
2022-07-29T16:39:02.751Z,100263.03
2022-07-29T16:41:36.193Z,100255.63
2022-07-29T16:44:02.470Z,100261.22
2022-07-29T16:49:11.862Z,100246.16
2022-07-29T16:51:45.018Z,100260.81
2022-07-29T16:54:11.229Z,100261.03
2022-07-29T16:56:37.543Z,100257.00
2022-07-29T16:59:03.783Z,100259.19
2022-07-29T17:01:32.917Z,100266.31
2022-07-29T17:04:00.480Z,100262.09
2022-07-29T17:06:27.015Z,100265.22
2022-07-29T17:08:53.546Z,100254.16
2022-07-29T17:11:19.871Z,100253.38
2022-07-29T17:13:46.045Z,100252.94
2022-07-29T17:16:12.576Z,100256.16
2022-07-29T17:18:38.833Z,100266.59
2022-07-29T17:21:05.061Z,100260.41
2022-07-29T17:23:31.222Z,100265.16
2022-07-29T17:25:57.384Z,100267.59
2022-07-29T17:28:23.949Z,100261.50
2022-07-29T17:30:50.435Z,100262.91
2022-07-29T17:33:16.619Z,100265.41
2022-07-29T17:35:42.839Z,100266.41
2022-07-29T17:38:08.994Z,100274.22
2022-07-29T17:40:38.185Z,100273.22
2022-07-29T17:43:04.352Z,100273.47
2022-07-29T17:45:48.753Z,100280.69
2022-07-29T17:48:16.722Z,100286.84
2022-07-29T17:50:45.728Z,100276.72
2022-07-29T17:53:16.224Z,100281.44
2022-07-29T17:55:45.136Z,100277.13
2022-07-29T17:58:18.743Z,100279.75
2022-07-29T18:00:45.034Z,100281.09
2022-07-29T18:03:11.423Z,100276.06
2022-07-29T18:05:39.537Z,100273.50
2022-07-29T18:08:11.366Z,100286.69
2022-07-29T18:10:46.571Z,100282.69
2022-07-29T18:13:19.953Z,100289.59
2022-07-29T18:15:46.313Z,100298.19
2022-07-29T18:18:12.620Z,100296.66
2022-07-29T18:20:38.883Z,100309.53
2022-07-29T18:23:07.235Z,100314.81
2022-07-29T18:25:33.495Z,100313.25
2022-07-29T18:39:33.250Z,100329.84
2022-07-29T18:41:59.547Z,100336.84
2022-07-29T18:44:28.535Z,100341.06
2022-07-29T18:46:55.033Z,100340.47
2022-07-29T18:49:21.467Z,100345.03
2022-07-29T18:51:47.765Z,100339.06
2022-07-29T18:54:15.253Z,100352.00
2022-07-29T18:56:45.028Z,100352.78
2022-07-29T18:59:16.057Z,100351.81
2022-07-29T19:01:42.448Z,100351.88
2022-07-29T19:04:10.695Z,100363.94
2022-07-29T19:06:37.007Z,100363.50
2022-07-29T19:11:56.303Z,100373.31
2022-07-29T19:14:24.486Z,100387.38
2022-07-29T19:16:54.507Z,100385.22
2022-07-29T19:19:20.713Z,100392.63
2022-07-29T19:21:47.138Z,100398.16
2022-07-29T19:24:15.588Z,100400.47
2022-07-29T19:26:44.186Z,100402.81
2022-07-29T19:29:10.381Z,100406.16
2022-07-29T19:31:36.688Z,100414.84
2022-07-29T19:34:02.894Z,100407.47
2022-07-29T19:36:29.079Z,100403.47
2022-07-29T19:38:55.403Z,100412.81
2022-07-29T19:41:21.604Z,100417.81
2022-07-29T19:43:53.133Z,100417.78
2022-07-29T19:46:19.627Z,100422.63
2022-07-29T19:48:49.580Z,100422.94
2022-07-29T19:51:28.845Z,100426.94
2022-07-29T20:02:20.267Z,100456.50
2022-07-29T20:04:49.456Z,100460.16
2022-07-29T20:07:18.414Z,100462.81
2022-07-29T20:09:46.623Z,100466.63
2022-07-29T20:12:23.502Z,100479.47
2022-07-29T20:14:49.765Z,100486.94
2022-07-29T20:17:29.206Z,100497.44
2022-07-29T20:19:58.934Z,100501.56
2022-07-29T20:22:25.316Z,100503.72
2022-07-29T20:24:51.600Z,100500.00
2022-07-29T20:27:17.930Z,100504.84
2022-07-29T20:29:44.484Z,100501.16
2022-07-29T20:32:10.732Z,100512.00
2022-07-29T20:34:44.132Z,100508.78
2022-07-29T20:37:17.987Z,100510.16
2022-07-29T20:39:45.570Z,100511.25
2022-07-29T20:42:12.746Z,100517.19
2022-07-29T20:44:38.975Z,100523.00
2022-07-29T20:47:05.223Z,100533.59
2022-07-29T20:49:31.422Z,100530.00
2022-07-29T20:51:57.719Z,100523.44
2022-07-29T20:54:23.957Z,100532.38
2022-07-29T20:56:51.603Z,100531.16
2022-07-29T20:59:17.979Z,100526.28
2022-07-29T21:01:44.229Z,100530.69
2022-07-29T21:04:10.506Z,100539.16
2022-07-29T21:06:36.716Z,100540.28
2022-07-29T21:09:02.964Z,100540.59
2022-07-29T21:11:44.463Z,100544.41
2022-07-29T21:14:11.268Z,100547.06
2022-07-29T21:16:37.476Z,100551.09
2022-07-29T21:19:03.776Z,100556.25
2022-07-29T21:21:29.981Z,100549.50
2022-07-29T21:23:56.246Z,100549.22
2022-07-29T21:26:24.547Z,100551.78
2022-07-29T21:28:50.794Z,100545.34
2022-07-29T21:31:17.044Z,100543.09
2022-07-29T21:33:43.249Z,100548.16
2022-07-29T21:36:44.008Z,100561.59
2022-07-29T21:38:55.681Z,100561.22
2022-07-29T21:41:24.136Z,100564.84
2022-07-29T21:43:50.331Z,100559.44
2022-07-29T21:46:16.652Z,100559.19
2022-07-29T21:48:44.690Z,100561.59
2022-07-29T21:51:11.060Z,100564.19
2022-07-29T21:53:37.290Z,100565.31
2022-07-29T21:56:06.138Z,100563.38
2022-07-29T21:58:35.665Z,100565.63
2022-07-29T22:01:05.962Z,100568.59
2022-07-29T22:03:32.235Z,100570.44
2022-07-29T22:05:58.507Z,100566.53
2022-07-29T22:08:25.890Z,100577.28
2022-07-29T22:10:52.058Z,100574.91
2022-07-29T22:13:18.298Z,100581.47
2022-07-29T22:15:47.204Z,100577.16
2022-07-29T22:18:13.586Z,100574.91
2022-07-29T22:20:46.715Z,100589.63
2022-07-29T22:23:14.278Z,100588.06
2022-07-29T22:25:47.718Z,100592.69
2022-07-29T22:28:13.978Z,100590.88
2022-07-29T22:30:43.346Z,100598.72
2022-07-29T22:33:09.568Z,100600.38
2022-07-29T22:35:43.781Z,100600.81
2022-07-29T22:38:09.951Z,100604.47
2022-07-29T22:40:36.115Z,100601.66
2022-07-29T22:43:02.437Z,100603.38
2022-07-29T22:45:28.644Z,100608.25
2022-07-29T22:47:59.205Z,100605.59
2022-07-29T22:50:25.748Z,100604.03
2022-07-29T22:52:51.934Z,100601.13
2022-07-29T22:55:18.131Z,100608.53
2022-07-29T22:57:44.312Z,100604.59
2022-07-29T23:00:10.509Z,100614.91
2022-07-29T23:02:36.730Z,100612.09
2022-07-29T23:05:02.957Z,100609.88
2022-07-29T23:07:29.140Z,100610.84
2022-07-29T23:09:55.326Z,100613.22
2022-07-29T23:12:21.481Z,100615.44
2022-07-29T23:14:47.666Z,100619.91
2022-07-29T23:17:13.925Z,100616.81
2022-07-29T23:19:40.163Z,100630.38
2022-07-29T23:22:06.338Z,100621.00
2022-07-29T23:24:32.507Z,100624.34
2022-07-29T23:26:58.977Z,100624.19
2022-07-29T23:29:25.760Z,100627.63
2022-07-29T23:31:51.941Z,100630.69
2022-07-29T23:34:18.112Z,100627.47
2022-07-29T23:36:44.297Z,100633.03
2022-07-29T23:39:10.507Z,100635.97
2022-07-29T23:41:36.687Z,100638.19
2022-07-29T23:44:02.899Z,100638.03
2022-07-29T23:46:29.064Z,100633.94
2022-07-29T23:48:55.301Z,100642.03
2022-07-29T23:51:21.501Z,100633.63
2022-07-29T23:53:53.773Z,100636.41
2022-07-29T23:56:20.529Z,100635.69
2022-07-29T23:58:46.824Z,100639.47
